sensor_id;sensor_type;location;lat;lon;timestamp;pressure;altitude;pressure_sealevel;temperature;humidity
55916;BME280;41826;53.246;-6.670;2023-10-31T00:01:49;98967.31;;;9.06;100.00
55916;BME280;41826;53.246;-6.670;2023-10-31T00:04:15;98970.63;;;9.00;100.00
55916;BME280;41826;53.246;-6.670;2023-10-31T00:06:40;98963.88;;;9.06;100.00
55916;BME280;41826;53.246;-6.670;2023-10-31T00:09:06;98959.47;;;9.06;100.00
55916;BME280;41826;53.246;-6.670;2023-10-31T00:11:31;98959.47;;;9.06;100.00
55916;BME280;41826;53.246;-6.670;2023-10-31T00:13:56;98961.44;;;9.04;100.00
55916;BME280;41826;53.246;-6.670;2023-10-31T00:16:22;98961.63;;;9.03;100.00
55916;BME280;41826;53.246;-6.670;2023-10-31T00:18:47;98962.41;;;9.03;100.00
55916;BME280;41826;53.246;-6.670;2023-10-31T00:21:12;98959.81;;;9.03;100.00
55916;BME280;41826;53.246;-6.670;2023-10-31T00:23:44;98962.25;;;9.05;100.00
55916;BME280;41826;53.246;-6.670;2023-10-31T00:26:09;98972.88;;;9.03;100.00
55916;BME280;41826;53.246;-6.670;2023-10-31T00:28:35;98968.00;;;9.00;100.00
55916;BME280;41826;53.246;-6.670;2023-10-31T00:31:00;98968.00;;;9.00;100.00
55916;BME280;41826;53.246;-6.670;2023-10-31T00:33:25;98979.66;;;8.98;100.00
55916;BME280;41826;53.246;-6.670;2023-10-31T00:35:51;98974.94;;;8.93;100.00
55916;BME280;41826;53.246;-6.670;2023-10-31T00:38:16;98975.22;;;8.98;100.00
55916;BME280;41826;53.246;-6.670;2023-10-31T00:40:41;98969.25;;;8.89;100.00
55916;BME280;41826;53.246;-6.670;2023-10-31T00:43:06;98977.63;;;8.85;100.00
55916;BME280;41826;53.246;-6.670;2023-10-31T00:45:32;98979.59;;;8.83;100.00
55916;BME280;41826;53.246;-6.670;2023-10-31T00:47:57;98983.28;;;8.74;100.00
55916;BME280;41826;53.246;-6.670;2023-10-31T00:50:22;98983.44;;;8.72;100.00
55916;BME280;41826;53.246;-6.670;2023-10-31T00:52:47;98964.47;;;8.70;100.00
55916;BME280;41826;53.246;-6.670;2023-10-31T00:55:13;98970.88;;;8.90;100.00
55916;BME280;41826;53.246;-6.670;2023-10-31T00:57:38;98971.63;;;8.99;100.00
55916;BME280;41826;53.246;-6.670;2023-10-31T01:00:03;98974.28;;;8.91;100.00
55916;BME280;41826;53.246;-6.670;2023-10-31T01:02:29;98978.06;;;8.88;100.00
55916;BME280;41826;53.246;-6.670;2023-10-31T01:04:54;98983.38;;;8.80;100.00
55916;BME280;41826;53.246;-6.670;2023-10-31T01:07:19;98982.91;;;8.77;100.00
55916;BME280;41826;53.246;-6.670;2023-10-31T01:09:44;98978.91;;;8.66;100.00
55916;BME280;41826;53.246;-6.670;2023-10-31T01:12:10;98968.84;;;8.78;100.00
55916;BME280;41826;53.246;-6.670;2023-10-31T01:14:36;98975.94;;;8.69;100.00
55916;BME280;41826;53.246;-6.670;2023-10-31T01:17:01;98976.59;;;8.63;100.00
55916;BME280;41826;53.246;-6.670;2023-10-31T01:19:26;98970.50;;;8.71;100.00
55916;BME280;41826;53.246;-6.670;2023-10-31T01:21:52;98966.22;;;8.78;100.00
55916;BME280;41826;53.246;-6.670;2023-10-31T01:24:17;98972.03;;;8.88;100.00
55916;BME280;41826;53.246;-6.670;2023-10-31T01:26:42;98970.50;;;8.94;100.00
55916;BME280;41826;53.246;-6.670;2023-10-31T01:29:07;98976.97;;;8.83;100.00
55916;BME280;41826;53.246;-6.670;2023-10-31T01:31:33;98982.97;;;8.68;100.00
55916;BME280;41826;53.246;-6.670;2023-10-31T01:33:59;98979.81;;;8.73;100.00
55916;BME280;41826;53.246;-6.670;2023-10-31T01:36:25;98982.91;;;8.77;100.00
55916;BME280;41826;53.246;-6.670;2023-10-31T01:38:51;98980.09;;;8.78;100.00
55916;BME280;41826;53.246;-6.670;2023-10-31T01:41:16;98976.09;;;8.90;100.00
55916;BME280;41826;53.246;-6.670;2023-10-31T01:43:41;98970.81;;;8.76;100.00
55916;BME280;41826;53.246;-6.670;2023-10-31T01:46:07;98985.25;;;8.72;100.00
55916;BME280;41826;53.246;-6.670;2023-10-31T01:48:32;98982.31;;;8.66;100.00
55916;BME280;41826;53.246;-6.670;2023-10-31T01:50:58;98982.97;;;8.68;100.00
55916;BME280;41826;53.246;-6.670;2023-10-31T01:53:24;98991.56;;;8.77;100.00
55916;BME280;41826;53.246;-6.670;2023-10-31T01:55:50;98994.34;;;8.76;100.00
55916;BME280;41826;53.246;-6.670;2023-10-31T01:58:16;98990.97;;;8.67;100.00
55916;BME280;41826;53.246;-6.670;2023-10-31T02:00:42;98983.72;;;8.77;100.00
55916;BME280;41826;53.246;-6.670;2023-10-31T02:03:08;98989.75;;;8.78;100.00
55916;BME280;41826;53.246;-6.670;2023-10-31T02:05:33;98989.41;;;8.81;100.00
55916;BME280;41826;53.246;-6.670;2023-10-31T02:07:59;98989.47;;;8.73;100.00
55916;BME280;41826;53.246;-6.670;2023-10-31T02:10:25;98993.66;;;8.82;100.00
55916;BME280;41826;53.246;-6.670;2023-10-31T02:12:50;98984.81;;;8.83;100.00
55916;BME280;41826;53.246;-6.670;2023-10-31T02:15:15;98991.56;;;8.77;100.00
55916;BME280;41826;53.246;-6.670;2023-10-31T02:17:40;98982.69;;;8.86;100.00
55916;BME280;41826;53.246;-6.670;2023-10-31T02:20:06;98994.63;;;8.81;100.00
55916;BME280;41826;53.246;-6.670;2023-10-31T02:22:31;98991.44;;;8.94;100.00
55916;BME280;41826;53.246;-6.670;2023-10-31T02:24:56;98993.53;;;8.75;100.00
55916;BME280;41826;53.246;-6.670;2023-10-31T02:27:22;99000.34;;;8.84;100.00
55916;BME280;41826;53.246;-6.670;2023-10-31T02:29:47;98996.97;;;8.76;100.00
55916;BME280;41826;53.246;-6.670;2023-10-31T02:32:12;98987.66;;;8.73;100.00
55916;BME280;41826;53.246;-6.670;2023-10-31T02:34:37;98989.75;;;8.78;100.00
55916;BME280;41826;53.246;-6.670;2023-10-31T02:37:03;98987.63;;;8.81;100.00
55916;BME280;41826;53.246;-6.670;2023-10-31T02:39:28;98975.06;;;8.77;100.00
55916;BME280;41826;53.246;-6.670;2023-10-31T02:41:53;98976.97;;;8.83;100.00
55916;BME280;41826;53.246;-6.670;2023-10-31T02:44:19;98977.31;;;8.80;100.00
55916;BME280;41826;53.246;-6.670;2023-10-31T02:46:44;98978.06;;;8.88;100.00
55916;BME280;41826;53.246;-6.670;2023-10-31T02:49:09;98971.34;;;8.94;100.00
55916;BME280;41826;53.246;-6.670;2023-10-31T02:51:35;98976.03;;;8.99;100.00
55916;BME280;41826;53.246;-6.670;2023-10-31T02:54:00;98984.47;;;8.86;100.00
55916;BME280;41826;53.246;-6.670;2023-10-31T02:56:25;98979.53;;;8.91;100.00
55916;BME280;41826;53.246;-6.670;2023-10-31T02:58:50;98976.22;;;8.97;100.00
55916;BME280;41826;53.246;-6.670;2023-10-31T03:01:16;98983.44;;;8.95;100.00
55916;BME280;41826;53.246;-6.670;2023-10-31T03:03:43;98980.66;;;8.97;100.00
55916;BME280;41826;53.246;-6.670;2023-10-31T03:06:08;98991.44;;;8.94;100.00
55916;BME280;41826;53.246;-6.670;2023-10-31T03:08:33;98982.25;;;8.98;100.00
55916;BME280;41826;53.246;-6.670;2023-10-31T03:10:58;98992.28;;;8.94;100.00
55916;BME280;41826;53.246;-6.670;2023-10-31T03:13:24;98988.44;;;9.05;100.00
55916;BME280;41826;53.246;-6.670;2023-10-31T03:15:49;98991.50;;;9.08;100.00
55916;BME280;41826;53.246;-6.670;2023-10-31T03:18:14;98985.66;;;9.06;100.00
55916;BME280;41826;53.246;-6.670;2023-10-31T03:20:40;98979.78;;;9.04;100.00
55916;BME280;41826;53.246;-6.670;2023-10-31T03:23:05;98981.88;;;9.09;100.00
55916;BME280;41826;53.246;-6.670;2023-10-31T03:25:31;98985.97;;;9.03;100.00
55916;BME280;41826;53.246;-6.670;2023-10-31T03:27:56;98995.81;;;9.01;100.00
55916;BME280;41826;53.246;-6.670;2023-10-31T03:30:21;98989.25;;;9.05;100.00
55916;BME280;41826;53.246;-6.670;2023-10-31T03:32:47;98993.44;;;9.15;100.00
55916;BME280;41826;53.246;-6.670;2023-10-31T03:35:12;98995.25;;;9.14;100.00
55916;BME280;41826;53.246;-6.670;2023-10-31T03:37:37;98992.16;;;9.10;100.00
55916;BME280;41826;53.246;-6.670;2023-10-31T03:40:06;98994.75;;;9.10;100.00
55916;BME280;41826;53.246;-6.670;2023-10-31T03:42:32;98990.97;;;9.13;100.00
55916;BME280;41826;53.246;-6.670;2023-10-31T03:44:58;98997.56;;;9.09;100.00
55916;BME280;41826;53.246;-6.670;2023-10-31T03:47:23;98993.06;;;9.18;100.00
55916;BME280;41826;53.246;-6.670;2023-10-31T03:49:48;98991.47;;;9.17;100.00
55916;BME280;41826;53.246;-6.670;2023-10-31T03:52:13;99004.34;;;9.18;100.00
55916;BME280;41826;53.246;-6.670;2023-10-31T03:54:41;99004.19;;;9.20;100.00
55916;BME280;41826;53.246;-6.670;2023-10-31T03:57:06;99008.78;;;9.18;100.00
55916;BME280;41826;53.246;-6.670;2023-10-31T03:59:31;99017.00;;;9.15;100.00
55916;BME280;41826;53.246;-6.670;2023-10-31T04:01:57;99013.22;;;9.17;100.00
55916;BME280;41826;53.246;-6.670;2023-10-31T04:04:22;99014.81;;;9.18;100.00
55916;BME280;41826;53.246;-6.670;2023-10-31T04:06:47;99016.75;;;9.24;100.00
55916;BME280;41826;53.246;-6.670;2023-10-31T04:09:12;99016.34;;;9.13;100.00
55916;BME280;41826;53.246;-6.670;2023-10-31T04:11:38;99015.31;;;9.22;100.00
55916;BME280;41826;53.246;-6.670;2023-10-31T04:14:04;99019.53;;;9.23;100.00
55916;BME280;41826;53.246;-6.670;2023-10-31T04:16:30;99024.25;;;9.27;100.00
55916;BME280;41826;53.246;-6.670;2023-10-31T04:18:56;99029.13;;;9.30;100.00
55916;BME280;41826;53.246;-6.670;2023-10-31T04:21:21;99021.91;;;9.32;100.00
55916;BME280;41826;53.246;-6.670;2023-10-31T04:23:46;99024.41;;;9.26;100.00
55916;BME280;41826;53.246;-6.670;2023-10-31T04:26:14;99024.41;;;9.26;100.00
55916;BME280;41826;53.246;-6.670;2023-10-31T04:28:41;99032.09;;;9.27;100.00
55916;BME280;41826;53.246;-6.670;2023-10-31T04:31:06;99025.34;;;9.33;100.00
55916;BME280;41826;53.246;-6.670;2023-10-31T04:33:31;99025.50;;;9.31;100.00
55916;BME280;41826;53.246;-6.670;2023-10-31T04:35:56;99033.44;;;9.23;100.00
55916;BME280;41826;53.246;-6.670;2023-10-31T04:38:22;99037.50;;;9.26;100.00
55916;BME280;41826;53.246;-6.670;2023-10-31T04:40:47;99034.38;;;9.30;100.00
55916;BME280;41826;53.246;-6.670;2023-10-31T04:43:12;99036.53;;;9.27;100.00
55916;BME280;41826;53.246;-6.670;2023-10-31T04:45:37;99040.41;;;9.31;100.00
55916;BME280;41826;53.246;-6.670;2023-10-31T04:48:02;99038.16;;;9.28;100.00
55916;BME280;41826;53.246;-6.670;2023-10-31T04:50:28;99046.00;;;9.28;100.00
55916;BME280;41826;53.246;-6.670;2023-10-31T04:52:53;99050.88;;;9.31;100.00
55916;BME280;41826;53.246;-6.670;2023-10-31T04:55:18;99050.72;;;9.32;100.00
55916;BME280;41826;53.246;-6.670;2023-10-31T04:57:44;99054.97;;;9.33;100.00
55916;BME280;41826;53.246;-6.670;2023-10-31T05:00:09;99048.25;;;9.31;100.00
55916;BME280;41826;53.246;-6.670;2023-10-31T05:02:35;99052.06;;;9.28;100.00
55916;BME280;41826;53.246;-6.670;2023-10-31T05:05:00;99053.44;;;9.39;100.00
55916;BME280;41826;53.246;-6.670;2023-10-31T05:07:25;99049.03;;;9.40;100.00
55916;BME280;41826;53.246;-6.670;2023-10-31T05:09:51;99049.66;;;9.42;100.00
55916;BME280;41826;53.246;-6.670;2023-10-31T05:12:16;99061.94;;;9.41;100.00
55916;BME280;41826;53.246;-6.670;2023-10-31T05:14:41;99052.47;;;9.40;100.00
55916;BME280;41826;53.246;-6.670;2023-10-31T05:17:07;99053.56;;;9.46;100.00
55916;BME280;41826;53.246;-6.670;2023-10-31T05:19:32;99063.09;;;9.39;100.00
55916;BME280;41826;53.246;-6.670;2023-10-31T05:21:57;99072.94;;;9.37;100.00
55916;BME280;41826;53.246;-6.670;2023-10-31T05:24:22;99066.94;;;9.28;100.00
55916;BME280;41826;53.246;-6.670;2023-10-31T05:26:48;99072.13;;;9.36;100.00
55916;BME280;41826;53.246;-6.670;2023-10-31T05:29:13;99072.56;;;9.25;100.00
55916;BME280;41826;53.246;-6.670;2023-10-31T05:31:38;99076.38;;;9.37;100.00
55916;BME280;41826;53.246;-6.670;2023-10-31T05:34:03;99073.47;;;9.32;100.00
55916;BME280;41826;53.246;-6.670;2023-10-31T05:36:29;99072.13;;;9.36;100.00
55916;BME280;41826;53.246;-6.670;2023-10-31T05:38:54;99073.22;;;9.42;100.00
55916;BME280;41826;53.246;-6.670;2023-10-31T05:41:19;99078.72;;;9.32;100.00
55916;BME280;41826;53.246;-6.670;2023-10-31T05:43:45;99082.31;;;9.31;100.00
55916;BME280;41826;53.246;-6.670;2023-10-31T05:46:10;99087.03;;;9.36;100.00
55916;BME280;41826;53.246;-6.670;2023-10-31T05:48:39;99084.28;;;9.29;100.00
55916;BME280;41826;53.246;-6.670;2023-10-31T05:51:04;99092.44;;;9.34;100.00
55916;BME280;41826;53.246;-6.670;2023-10-31T05:53:30;99092.91;;;9.38;100.00
55916;BME280;41826;53.246;-6.670;2023-10-31T05:55:58;99102.81;;;9.27;100.00
55916;BME280;41826;53.246;-6.670;2023-10-31T05:58:23;99102.31;;;9.24;100.00
55916;BME280;41826;53.246;-6.670;2023-10-31T06:00:48;99108.13;;;9.34;100.00
55916;BME280;41826;53.246;-6.670;2023-10-31T06:03:14;99108.50;;;9.31;100.00
55916;BME280;41826;53.246;-6.670;2023-10-31T06:05:39;99110.75;;;9.34;100.00
55916;BME280;41826;53.246;-6.670;2023-10-31T06:08:04;99104.06;;;9.31;100.00
55916;BME280;41826;53.246;-6.670;2023-10-31T06:10:29;99111.53;;;9.20;100.00
55916;BME280;41826;53.246;-6.670;2023-10-31T06:12:55;99113.56;;;9.32;100.00
55916;BME280;41826;53.246;-6.670;2023-10-31T06:15:20;99117.81;;;9.33;100.00
55916;BME280;41826;53.246;-6.670;2023-10-31T06:17:45;99122.75;;;9.28;100.00
55916;BME280;41826;53.246;-6.670;2023-10-31T06:20:11;99122.88;;;9.35;100.00
55916;BME280;41826;53.246;-6.670;2023-10-31T06:22:36;99120.31;;;9.27;100.00
55916;BME280;41826;53.246;-6.670;2023-10-31T06:25:01;99132.00;;;9.16;100.00
55916;BME280;41826;53.246;-6.670;2023-10-31T06:27:27;99140.03;;;9.15;100.00
55916;BME280;41826;53.246;-6.670;2023-10-31T06:29:52;99130.50;;;9.22;100.00
55916;BME280;41826;53.246;-6.670;2023-10-31T06:32:18;99134.31;;;9.11;100.00
55916;BME280;41826;53.246;-6.670;2023-10-31T06:34:43;99126.44;;;9.19;100.00
55916;BME280;41826;53.246;-6.670;2023-10-31T06:37:08;99126.72;;;9.24;100.00
55916;BME280;41826;53.246;-6.670;2023-10-31T06:39:33;99127.53;;;9.25;100.00
55916;BME280;41826;53.246;-6.670;2023-10-31T06:41:59;99133.50;;;9.10;100.00
55916;BME280;41826;53.246;-6.670;2023-10-31T06:44:24;99139.25;;;9.06;100.00
55916;BME280;41826;53.246;-6.670;2023-10-31T06:46:49;99140.59;;;9.02;100.00
55916;BME280;41826;53.246;-6.670;2023-10-31T06:49:14;99145.38;;;8.90;100.00
55916;BME280;41826;53.246;-6.670;2023-10-31T06:51:40;99143.22;;;8.94;100.00
55916;BME280;41826;53.246;-6.670;2023-10-31T06:54:05;99146.75;;;8.78;100.00
55916;BME280;41826;53.246;-6.670;2023-10-31T06:56:30;99141.69;;;8.76;100.00
55916;BME280;41826;53.246;-6.670;2023-10-31T06:58:56;99151.44;;;8.90;100.00
55916;BME280;41826;53.246;-6.670;2023-10-31T07:01:21;99152.78;;;8.86;100.00
55916;BME280;41826;53.246;-6.670;2023-10-31T07:03:47;99160.41;;;8.96;100.00
55916;BME280;41826;53.246;-6.670;2023-10-31T07:06:14;99162.25;;;8.87;100.00
55916;BME280;41826;53.246;-6.670;2023-10-31T07:08:39;99165.81;;;8.95;100.00
55916;BME280;41826;53.246;-6.670;2023-10-31T07:11:04;99167.44;;;8.96;100.00
55916;BME280;41826;53.246;-6.670;2023-10-31T07:13:30;99168.22;;;9.04;100.00
55916;BME280;41826;53.246;-6.670;2023-10-31T07:15:55;99169.84;;;9.05;100.00
55916;BME280;41826;53.246;-6.670;2023-10-31T07:18:20;99171.31;;;9.08;100.00
55916;BME280;41826;53.246;-6.670;2023-10-31T07:20:45;99178.72;;;8.96;100.00
55916;BME280;41826;53.246;-6.670;2023-10-31T07:23:11;99180.09;;;8.84;100.00
55916;BME280;41826;53.246;-6.670;2023-10-31T07:25:36;99174.31;;;8.97;100.00
55916;BME280;41826;53.246;-6.670;2023-10-31T07:28:01;99176.47;;;8.85;100.00
55916;BME280;41826;53.246;-6.670;2023-10-31T07:30:27;99179.75;;;8.87;100.00
55916;BME280;41826;53.246;-6.670;2023-10-31T07:32:52;99177.78;;;8.89;100.00
55916;BME280;41826;53.246;-6.670;2023-10-31T07:35:18;99182.13;;;9.05;100.00
55916;BME280;41826;53.246;-6.670;2023-10-31T07:37:44;99184.28;;;8.93;100.00
55916;BME280;41826;53.246;-6.670;2023-10-31T07:40:10;99180.56;;;9.19;100.00
55916;BME280;41826;53.246;-6.670;2023-10-31T07:42:35;99187.97;;;9.15;100.00
55916;BME280;41826;53.246;-6.670;2023-10-31T07:45:00;99182.53;;;8.85;100.00
55916;BME280;41826;53.246;-6.670;2023-10-31T07:47:26;99186.84;;;9.09;100.00
55916;BME280;41826;53.246;-6.670;2023-10-31T07:49:51;99195.25;;;8.97;100.00
55916;BME280;41826;53.246;-6.670;2023-10-31T07:52:18;99195.09;;;8.90;100.00
55916;BME280;41826;53.246;-6.670;2023-10-31T07:54:43;99201.97;;;8.91;100.00
55916;BME280;41826;53.246;-6.670;2023-10-31T07:57:09;99201.31;;;8.97;100.00
55916;BME280;41826;53.246;-6.670;2023-10-31T07:59:34;99216.66;;;9.00;100.00
55916;BME280;41826;53.246;-6.670;2023-10-31T08:02:00;99211.56;;;9.07;100.00
55916;BME280;41826;53.246;-6.670;2023-10-31T08:04:25;99219.25;;;9.08;100.00
55916;BME280;41826;53.246;-6.670;2023-10-31T08:06:50;99229.91;;;8.99;100.00
55916;BME280;41826;53.246;-6.670;2023-10-31T08:09:15;99229.41;;;9.03;100.00
55916;BME280;41826;53.246;-6.670;2023-10-31T08:11:41;99227.78;;;9.02;100.00
55916;BME280;41826;53.246;-6.670;2023-10-31T08:14:06;99234.47;;;9.05;100.00
55916;BME280;41826;53.246;-6.670;2023-10-31T08:16:31;99235.97;;;8.99;100.00
55916;BME280;41826;53.246;-6.670;2023-10-31T08:18:57;99227.50;;;8.81;100.00
55916;BME280;41826;53.246;-6.670;2023-10-31T08:21:22;99241.28;;;8.75;100.00
55916;BME280;41826;53.246;-6.670;2023-10-31T08:23:47;99241.22;;;8.91;100.00
55916;BME280;41826;53.246;-6.670;2023-10-31T08:26:13;99236.78;;;9.00;100.00
55916;BME280;41826;53.246;-6.670;2023-10-31T08:28:38;99239.88;;;9.11;100.00
55916;BME280;41826;53.246;-6.670;2023-10-31T08:31:03;99239.63;;;9.21;100.00
55916;BME280;41826;53.246;-6.670;2023-10-31T08:33:29;99245.66;;;9.30;100.00
55916;BME280;41826;53.246;-6.670;2023-10-31T08:35:54;99256.94;;;9.30;100.00
55916;BME280;41826;53.246;-6.670;2023-10-31T08:38:20;99249.44;;;9.27;100.00
55916;BME280;41826;53.246;-6.670;2023-10-31T08:40:45;99258.47;;;9.25;100.00
55916;BME280;41826;53.246;-6.670;2023-10-31T08:43:10;99265.50;;;9.24;100.00
55916;BME280;41826;53.246;-6.670;2023-10-31T08:45:36;99275.16;;;9.16;100.00
55916;BME280;41826;53.246;-6.670;2023-10-31T08:48:01;99279.22;;;9.26;100.00
55916;BME280;41826;53.246;-6.670;2023-10-31T08:50:26;99276.81;;;9.08;100.00
55916;BME280;41826;53.246;-6.670;2023-10-31T08:52:52;99282.19;;;9.23;100.00
55916;BME280;41826;53.246;-6.670;2023-10-31T08:55:18;99279.09;;;9.20;100.00
55916;BME280;41826;53.246;-6.670;2023-10-31T08:57:43;99280.66;;;9.37;100.00
55916;BME280;41826;53.246;-6.670;2023-10-31T09:00:08;99279.56;;;9.63;100.00
55916;BME280;41826;53.246;-6.670;2023-10-31T09:02:34;99282.81;;;9.65;100.00
55916;BME280;41826;53.246;-6.670;2023-10-31T09:04:59;99283.03;;;9.55;100.00
55916;BME280;41826;53.246;-6.670;2023-10-31T09:07:25;99284.28;;;9.67;100.00
55916;BME280;41826;53.246;-6.670;2023-10-31T09:09:50;99285.47;;;9.57;100.00
55916;BME280;41826;53.246;-6.670;2023-10-31T09:12:15;99278.97;;;9.44;100.00
55916;BME280;41826;53.246;-6.670;2023-10-31T09:14:40;99286.63;;;9.54;100.00
55916;BME280;41826;53.246;-6.670;2023-10-31T09:17:07;99286.22;;;9.34;100.00
55916;BME280;41826;53.246;-6.670;2023-10-31T09:19:32;99282.47;;;9.28;100.00
55916;BME280;41826;53.246;-6.670;2023-10-31T09:21:57;99282.28;;;9.38;100.00
55916;BME280;41826;53.246;-6.670;2023-10-31T09:24:23;99288.78;;;9.50;100.00
55916;BME280;41826;53.246;-6.670;2023-10-31T09:26:49;99288.72;;;9.59;100.00
55916;BME280;41826;53.246;-6.670;2023-10-31T09:29:14;99284.44;;;9.66;100.00
55916;BME280;41826;53.246;-6.670;2023-10-31T09:31:39;99291.31;;;9.67;100.00
55916;BME280;41826;53.246;-6.670;2023-10-31T09:34:04;99302.03;;;9.57;100.00
55916;BME280;41826;53.246;-6.670;2023-10-31T09:36:32;99299.88;;;9.61;100.00
55916;BME280;41826;53.246;-6.670;2023-10-31T09:38:59;99307.63;;;9.77;100.00
55916;BME280;41826;53.246;-6.670;2023-10-31T09:41:24;99310.53;;;9.90;100.00
55916;BME280;41826;53.246;-6.670;2023-10-31T09:43:49;99315.00;;;10.05;100.00
55916;BME280;41826;53.246;-6.670;2023-10-31T09:46:15;99326.88;;;9.92;100.00
55916;BME280;41826;53.246;-6.670;2023-10-31T09:48:41;99326.31;;;9.74;100.00
55916;BME280;41826;53.246;-6.670;2023-10-31T09:51:06;99326.56;;;9.87;100.00
55916;BME280;41826;53.246;-6.670;2023-10-31T09:53:32;99331.50;;;9.90;100.00
55916;BME280;41826;53.246;-6.670;2023-10-31T09:55:58;99337.84;;;9.96;100.00
55916;BME280;41826;53.246;-6.670;2023-10-31T09:58:24;99348.31;;;9.96;100.00
55916;BME280;41826;53.246;-6.670;2023-10-31T10:00:49;99346.81;;;10.02;100.00
55916;BME280;41826;53.246;-6.670;2023-10-31T10:03:15;99360.31;;;9.90;100.00
55916;BME280;41826;53.246;-6.670;2023-10-31T10:05:41;99352.06;;;10.02;100.00
55916;BME280;41826;53.246;-6.670;2023-10-31T10:08:09;99360.34;;;10.13;100.00
55916;BME280;41826;53.246;-6.670;2023-10-31T10:10:34;99361.91;;;10.23;100.00
55916;BME280;41826;53.246;-6.670;2023-10-31T10:13:00;99371.09;;;10.27;100.00
55916;BME280;41826;53.246;-6.670;2023-10-31T10:15:28;99365.44;;;10.38;100.00
55916;BME280;41826;53.246;-6.670;2023-10-31T10:17:53;99378.63;;;10.30;100.00
55916;BME280;41826;53.246;-6.670;2023-10-31T10:20:18;99386.09;;;10.41;100.00
55916;BME280;41826;53.246;-6.670;2023-10-31T10:22:44;99393.63;;;10.44;100.00
55916;BME280;41826;53.246;-6.670;2023-10-31T10:25:10;99417.31;;;10.59;100.00
55916;BME280;41826;53.246;-6.670;2023-10-31T10:27:37;99413.03;;;10.58;100.00
55916;BME280;41826;53.246;-6.670;2023-10-31T10:30:03;99428.16;;;10.56;100.00
55916;BME280;41826;53.246;-6.670;2023-10-31T10:32:29;99433.06;;;10.59;100.00
55916;BME280;41826;53.246;-6.670;2023-10-31T10:34:54;99440.41;;;10.63;100.00
55916;BME280;41826;53.246;-6.670;2023-10-31T10:37:19;99440.69;;;10.69;100.00
55916;BME280;41826;53.246;-6.670;2023-10-31T10:39:47;99440.41;;;10.87;100.00
55916;BME280;41826;53.246;-6.670;2023-10-31T10:42:12;99451.81;;;10.94;100.00
55916;BME280;41826;53.246;-6.670;2023-10-31T10:44:41;99458.59;;;10.88;100.00
55916;BME280;41826;53.246;-6.670;2023-10-31T10:47:08;99469.44;;;10.85;100.00
55916;BME280;41826;53.246;-6.670;2023-10-31T10:49:34;99499.66;;;10.81;100.00
55916;BME280;41826;53.246;-6.670;2023-10-31T11:00:05;99528.59;;;10.41;100.00
55916;BME280;41826;53.246;-6.670;2023-10-31T11:02:37;99535.25;;;10.52;100.00
55916;BME280;41826;53.246;-6.670;2023-10-31T11:05:05;99537.66;;;10.62;100.00
55916;BME280;41826;53.246;-6.670;2023-10-31T11:07:30;99549.75;;;10.40;100.00
55916;BME280;41826;53.246;-6.670;2023-10-31T11:09:57;99548.97;;;10.31;100.00
55916;BME280;41826;53.246;-6.670;2023-10-31T11:12:23;99557.31;;;10.27;100.00
55916;BME280;41826;53.246;-6.670;2023-10-31T11:14:50;99559.28;;;10.33;100.00
55916;BME280;41826;53.246;-6.670;2023-10-31T11:17:29;99553.00;;;10.42;100.00
55916;BME280;41826;53.246;-6.670;2023-10-31T11:19:56;99565.53;;;10.24;100.00
55916;BME280;41826;53.246;-6.670;2023-10-31T11:22:21;99565.69;;;10.30;100.00
55916;BME280;41826;53.246;-6.670;2023-10-31T11:24:48;99558.50;;;10.63;100.00
55916;BME280;41826;53.246;-6.670;2023-10-31T11:27:13;99562.28;;;10.61;100.00
55916;BME280;41826;53.246;-6.670;2023-10-31T11:29:39;99561.03;;;10.40;100.00
55916;BME280;41826;53.246;-6.670;2023-10-31T11:32:07;99569.97;;;10.15;100.00
55916;BME280;41826;53.246;-6.670;2023-10-31T11:34:33;99556.09;;;10.54;100.00
55916;BME280;41826;53.246;-6.670;2023-10-31T11:42:29;99572.66;;;10.54;100.00
55916;BME280;41826;53.246;-6.670;2023-10-31T11:44:56;99576.94;;;10.47;100.00
55916;BME280;41826;53.246;-6.670;2023-10-31T11:47:22;99579.72;;;10.54;100.00
55916;BME280;41826;53.246;-6.670;2023-10-31T11:49:47;99582.94;;;10.64;100.00
55916;BME280;41826;53.246;-6.670;2023-10-31T11:52:16;99596.94;;;10.88;100.00
55916;BME280;41826;53.246;-6.670;2023-10-31T11:54:42;99595.59;;;10.92;100.00
55916;BME280;41826;53.246;-6.670;2023-10-31T11:57:07;99612.03;;;10.85;100.00
55916;BME280;41826;53.246;-6.670;2023-10-31T11:59:39;99623.16;;;11.19;100.00
55916;BME280;41826;53.246;-6.670;2023-10-31T12:02:17;99614.38;;;11.03;100.00
55916;BME280;41826;53.246;-6.670;2023-10-31T12:04:43;99618.84;;;11.26;100.00
55916;BME280;41826;53.246;-6.670;2023-10-31T12:07:09;99618.25;;;11.39;100.00
55916;BME280;41826;53.246;-6.670;2023-10-31T12:09:47;99629.91;;;11.44;100.00
55916;BME280;41826;53.246;-6.670;2023-10-31T12:12:12;99637.06;;;11.27;100.00
55916;BME280;41826;53.246;-6.670;2023-10-31T12:14:38;99620.72;;;11.40;100.00
55916;BME280;41826;53.246;-6.670;2023-10-31T12:17:04;99627.63;;;11.41;100.00
55916;BME280;41826;53.246;-6.670;2023-10-31T12:19:29;99635.56;;;11.33;100.00
55916;BME280;41826;53.246;-6.670;2023-10-31T12:21:55;99651.19;;;11.26;100.00
55916;BME280;41826;53.246;-6.670;2023-10-31T12:24:21;99655.47;;;11.27;100.00
55916;BME280;41826;53.246;-6.670;2023-10-31T12:26:46;99660.66;;;11.36;100.00
55916;BME280;41826;53.246;-6.670;2023-10-31T12:29:13;99654.59;;;11.58;100.00
55916;BME280;41826;53.246;-6.670;2023-10-31T12:31:42;99666.94;;;11.26;100.00
55916;BME280;41826;53.246;-6.670;2023-10-31T12:34:08;99670.00;;;11.38;100.00
55916;BME280;41826;53.246;-6.670;2023-10-31T12:36:34;99683.88;;;11.24;100.00
55916;BME280;41826;53.246;-6.670;2023-10-31T12:39:00;99685.75;;;11.15;100.00
55916;BME280;41826;53.246;-6.670;2023-10-31T12:41:26;99683.56;;;11.27;100.00
55916;BME280;41826;53.246;-6.670;2023-10-31T12:43:52;99684.47;;;11.34;100.00
55916;BME280;41826;53.246;-6.670;2023-10-31T12:46:30;99686.47;;;11.01;100.00
55916;BME280;41826;53.246;-6.670;2023-10-31T12:48:59;99677.47;;;11.26;100.00
55916;BME280;41826;53.246;-6.670;2023-10-31T12:51:24;99682.97;;;11.17;100.00
55916;BME280;41826;53.246;-6.670;2023-10-31T12:53:50;99690.59;;;10.95;100.00